sensor_id;sensor_type;location;lat;lon;timestamp;P1;durP1;ratioP1;P2;durP2;ratioP2
34317;SDS011;20582;52.196;20.952;2022-11-02T00:01:40;106.25;;;41.60;;
34317;SDS011;20582;52.196;20.952;2022-11-02T00:04:07;124.03;;;43.85;;
34317;SDS011;20582;52.196;20.952;2022-11-02T00:06:33;111.38;;;42.63;;
34317;SDS011;20582;52.196;20.952;2022-11-02T00:08:59;108.82;;;42.38;;
34317;SDS011;20582;52.196;20.952;2022-11-02T00:11:25;114.45;;;42.53;;
34317;SDS011;20582;52.196;20.952;2022-11-02T00:13:51;98.45;;;43.58;;
34317;SDS011;20582;52.196;20.952;2022-11-02T00:16:17;96.70;;;41.72;;
34317;SDS011;20582;52.196;20.952;2022-11-02T00:18:44;96.38;;;41.80;;
34317;SDS011;20582;52.196;20.952;2022-11-02T00:21:11;90.15;;;43.55;;
34317;SDS011;20582;52.196;20.952;2022-11-02T00:23:39;108.82;;;47.60;;
34317;SDS011;20582;52.196;20.952;2022-11-02T00:26:05;100.97;;;46.28;;
34317;SDS011;20582;52.196;20.952;2022-11-02T00:28:31;114.80;;;47.78;;
34317;SDS011;20582;52.196;20.952;2022-11-02T00:30:58;103.70;;;48.25;;
34317;SDS011;20582;52.196;20.952;2022-11-02T00:33:23;110.30;;;48.95;;
34317;SDS011;20582;52.196;20.952;2022-11-02T00:35:50;104.97;;;48.63;;
34317;SDS011;20582;52.196;20.952;2022-11-02T00:38:17;115.40;;;52.38;;
34317;SDS011;20582;52.196;20.952;2022-11-02T00:40:43;107.53;;;50.35;;
34317;SDS011;20582;52.196;20.952;2022-11-02T00:43:09;126.93;;;52.80;;
34317;SDS011;20582;52.196;20.952;2022-11-02T00:45:35;117.47;;;51.67;;
34317;SDS011;20582;52.196;20.952;2022-11-02T00:48:01;121.50;;;52.08;;
34317;SDS011;20582;52.196;20.952;2022-11-02T00:50:27;110.40;;;50.92;;
34317;SDS011;20582;52.196;20.952;2022-11-02T00:52:53;121.47;;;53.60;;
34317;SDS011;20582;52.196;20.952;2022-11-02T00:55:19;123.75;;;54.78;;
34317;SDS011;20582;52.196;20.952;2022-11-02T00:57:45;125.47;;;53.65;;
34317;SDS011;20582;52.196;20.952;2022-11-02T01:00:11;124.47;;;53.65;;
34317;SDS011;20582;52.196;20.952;2022-11-02T01:02:38;124.35;;;54.67;;
34317;SDS011;20582;52.196;20.952;2022-11-02T01:05:05;126.72;;;58.22;;
34317;SDS011;20582;52.196;20.952;2022-11-02T01:07:31;131.15;;;57.30;;
34317;SDS011;20582;52.196;20.952;2022-11-02T01:09:57;151.82;;;58.67;;
34317;SDS011;20582;52.196;20.952;2022-11-02T01:12:23;125.72;;;55.88;;
34317;SDS011;20582;52.196;20.952;2022-11-02T01:14:50;139.63;;;58.40;;
34317;SDS011;20582;52.196;20.952;2022-11-02T01:17:16;136.35;;;57.63;;
34317;SDS011;20582;52.196;20.952;2022-11-02T01:19:42;147.45;;;61.20;;
34317;SDS011;20582;52.196;20.952;2022-11-02T01:22:08;151.07;;;58.75;;
34317;SDS011;20582;52.196;20.952;2022-11-02T01:24:34;141.88;;;60.28;;
34317;SDS011;20582;52.196;20.952;2022-11-02T01:27:00;136.32;;;61.47;;
34317;SDS011;20582;52.196;20.952;2022-11-02T01:29:26;153.77;;;61.22;;
34317;SDS011;20582;52.196;20.952;2022-11-02T01:31:52;151.70;;;59.17;;
34317;SDS011;20582;52.196;20.952;2022-11-02T01:34:18;147.95;;;56.85;;
34317;SDS011;20582;52.196;20.952;2022-11-02T01:36:44;159.32;;;56.78;;
34317;SDS011;20582;52.196;20.952;2022-11-02T01:39:10;159.38;;;57.15;;
34317;SDS011;20582;52.196;20.952;2022-11-02T01:41:36;158.05;;;55.00;;
34317;SDS011;20582;52.196;20.952;2022-11-02T01:44:03;153.02;;;54.50;;
34317;SDS011;20582;52.196;20.952;2022-11-02T01:46:42;153.05;;;52.78;;
34317;SDS011;20582;52.196;20.952;2022-11-02T01:49:11;156.30;;;53.13;;
34317;SDS011;20582;52.196;20.952;2022-11-02T01:51:42;147.32;;;52.45;;
34317;SDS011;20582;52.196;20.952;2022-11-02T01:54:11;160.55;;;54.20;;
34317;SDS011;20582;52.196;20.952;2022-11-02T01:56:39;150.02;;;50.63;;
34317;SDS011;20582;52.196;20.952;2022-11-02T01:59:07;169.32;;;52.42;;
34317;SDS011;20582;52.196;20.952;2022-11-02T02:01:34;159.43;;;52.90;;
34317;SDS011;20582;52.196;20.952;2022-11-02T02:04:00;163.40;;;54.28;;
34317;SDS011;20582;52.196;20.952;2022-11-02T02:06:27;172.65;;;54.22;;
34317;SDS011;20582;52.196;20.952;2022-11-02T02:08:53;171.00;;;53.13;;
34317;SDS011;20582;52.196;20.952;2022-11-02T02:11:27;181.60;;;54.38;;
34317;SDS011;20582;52.196;20.952;2022-11-02T02:14:03;177.73;;;56.10;;
34317;SDS011;20582;52.196;20.952;2022-11-02T02:16:45;201.93;;;56.72;;
34317;SDS011;20582;52.196;20.952;2022-11-02T02:19:18;188.55;;;55.78;;
34317;SDS011;20582;52.196;20.952;2022-11-02T02:21:52;169.80;;;54.78;;
34317;SDS011;20582;52.196;20.952;2022-11-02T02:34:57;279.63;;;63.65;;
34317;SDS011;20582;52.196;20.952;2022-11-02T02:37:26;274.45;;;65.65;;
34317;SDS011;20582;52.196;20.952;2022-11-02T02:42:28;305.25;;;69.88;;
34317;SDS011;20582;52.196;20.952;2022-11-02T02:45:07;329.33;;;71.43;;
34317;SDS011;20582;52.196;20.952;2022-11-02T02:47:36;365.25;;;75.32;;
34317;SDS011;20582;52.196;20.952;2022-11-02T02:50:10;354.67;;;75.80;;
34317;SDS011;20582;52.196;20.952;2022-11-02T02:52:39;430.48;;;81.43;;
34317;SDS011;20582;52.196;20.952;2022-11-02T02:55:06;394.48;;;78.85;;
34317;SDS011;20582;52.196;20.952;2022-11-02T02:57:32;366.15;;;77.22;;
34317;SDS011;20582;52.196;20.952;2022-11-02T02:59:59;418.98;;;80.07;;
34317;SDS011;20582;52.196;20.952;2022-11-02T03:02:32;342.80;;;75.90;;
34317;SDS011;20582;52.196;20.952;2022-11-02T03:04:58;412.92;;;83.07;;
34317;SDS011;20582;52.196;20.952;2022-11-02T03:07:26;387.77;;;82.93;;
34317;SDS011;20582;52.196;20.952;2022-11-02T03:10:08;464.70;;;85.55;;
34317;SDS011;20582;52.196;20.952;2022-11-02T03:15:23;323.80;;;75.10;;
34317;SDS011;20582;52.196;20.952;2022-11-02T03:20:29;346.33;;;74.90;;
34317;SDS011;20582;52.196;20.952;2022-11-02T03:25:25;312.92;;;73.38;;
34317;SDS011;20582;52.196;20.952;2022-11-02T03:30:41;331.73;;;80.47;;
34317;SDS011;20582;52.196;20.952;2022-11-02T03:36:02;348.23;;;80.95;;
34317;SDS011;20582;52.196;20.952;2022-11-02T03:40:59;352.88;;;79.53;;
34317;SDS011;20582;52.196;20.952;2022-11-02T03:43:26;362.40;;;81.63;;
34317;SDS011;20582;52.196;20.952;2022-11-02T03:45:53;345.08;;;80.10;;
34317;SDS011;20582;52.196;20.952;2022-11-02T03:48:20;343.08;;;78.95;;
34317;SDS011;20582;52.196;20.952;2022-11-02T03:50:48;429.45;;;85.43;;
34317;SDS011;20582;52.196;20.952;2022-11-02T03:53:17;363.60;;;79.90;;
34317;SDS011;20582;52.196;20.952;2022-11-02T03:55:47;409.13;;;84.80;;
34317;SDS011;20582;52.196;20.952;2022-11-02T03:58:16;367.23;;;78.88;;
34317;SDS011;20582;52.196;20.952;2022-11-02T04:00:59;428.08;;;88.75;;
34317;SDS011;20582;52.196;20.952;2022-11-02T04:03:26;407.25;;;86.18;;
34317;SDS011;20582;52.196;20.952;2022-11-02T04:05:53;459.05;;;87.13;;
34317;SDS011;20582;52.196;20.952;2022-11-02T04:08:27;425.15;;;88.85;;
34317;SDS011;20582;52.196;20.952;2022-11-02T04:10:54;460.30;;;92.35;;
34317;SDS011;20582;52.196;20.952;2022-11-02T04:13:39;424.50;;;90.47;;
34317;SDS011;20582;52.196;20.952;2022-11-02T04:16:24;405.25;;;91.50;;
34317;SDS011;20582;52.196;20.952;2022-11-02T04:18:50;454.15;;;96.28;;
34317;SDS011;20582;52.196;20.952;2022-11-02T04:21:34;534.33;;;103.63;;
34317;SDS011;20582;52.196;20.952;2022-11-02T04:24:00;438.35;;;99.78;;
34317;SDS011;20582;52.196;20.952;2022-11-02T04:26:45;545.03;;;107.65;;
34317;SDS011;20582;52.196;20.952;2022-11-02T04:29:11;477.67;;;101.85;;
34317;SDS011;20582;52.196;20.952;2022-11-02T04:31:37;520.67;;;103.20;;
34317;SDS011;20582;52.196;20.952;2022-11-02T04:34:03;533.45;;;104.68;;
34317;SDS011;20582;52.196;20.952;2022-11-02T04:36:29;460.45;;;99.82;;
34317;SDS011;20582;52.196;20.952;2022-11-02T04:38:55;526.17;;;103.75;;
34317;SDS011;20582;52.196;20.952;2022-11-02T04:41:21;548.50;;;105.70;;
34317;SDS011;20582;52.196;20.952;2022-11-02T04:44:06;486.90;;;108.70;;
34317;SDS011;20582;52.196;20.952;2022-11-02T04:46:33;455.60;;;102.35;;
34317;SDS011;20582;52.196;20.952;2022-11-02T04:49:00;486.92;;;107.10;;
34317;SDS011;20582;52.196;20.952;2022-11-02T04:51:26;516.00;;;111.55;;
34317;SDS011;20582;52.196;20.952;2022-11-02T04:53:53;540.20;;;111.70;;
34317;SDS011;20582;52.196;20.952;2022-11-02T04:56:19;527.42;;;111.00;;
34317;SDS011;20582;52.196;20.952;2022-11-02T04:58:53;522.35;;;107.72;;
34317;SDS011;20582;52.196;20.952;2022-11-02T05:01:19;528.70;;;111.82;;
34317;SDS011;20582;52.196;20.952;2022-11-02T05:03:46;545.30;;;115.03;;
34317;SDS011;20582;52.196;20.952;2022-11-02T05:06:12;459.23;;;109.22;;
34317;SDS011;20582;52.196;20.952;2022-11-02T05:08:39;484.52;;;108.05;;
34317;SDS011;20582;52.196;20.952;2022-11-02T05:11:05;503.65;;;110.63;;
34317;SDS011;20582;52.196;20.952;2022-11-02T05:13:31;453.10;;;108.70;;
34317;SDS011;20582;52.196;20.952;2022-11-02T05:15:58;472.85;;;110.85;;
34317;SDS011;20582;52.196;20.952;2022-11-02T05:18:24;498.65;;;111.93;;
34317;SDS011;20582;52.196;20.952;2022-11-02T05:20:55;466.67;;;109.68;;
34317;SDS011;20582;52.196;20.952;2022-11-02T05:23:22;422.70;;;107.10;;
34317;SDS011;20582;52.196;20.952;2022-11-02T05:25:54;434.80;;;105.80;;
34317;SDS011;20582;52.196;20.952;2022-11-02T05:28:21;427.30;;;105.40;;
34317;SDS011;20582;52.196;20.952;2022-11-02T05:30:47;399.52;;;102.60;;
34317;SDS011;20582;52.196;20.952;2022-11-02T05:33:13;456.27;;;106.13;;
34317;SDS011;20582;52.196;20.952;2022-11-02T05:35:39;452.90;;;104.45;;
34317;SDS011;20582;52.196;20.952;2022-11-02T05:38:05;399.70;;;101.20;;
34317;SDS011;20582;52.196;20.952;2022-11-02T05:40:31;459.00;;;107.10;;
34317;SDS011;20582;52.196;20.952;2022-11-02T05:43:00;384.58;;;102.18;;
34317;SDS011;20582;52.196;20.952;2022-11-02T05:45:27;430.50;;;105.50;;
34317;SDS011;20582;52.196;20.952;2022-11-02T05:47:53;417.75;;;103.90;;
34317;SDS011;20582;52.196;20.952;2022-11-02T05:50:19;402.48;;;103.38;;
34317;SDS011;20582;52.196;20.952;2022-11-02T05:52:45;452.65;;;106.53;;
34317;SDS011;20582;52.196;20.952;2022-11-02T05:55:11;428.05;;;101.03;;
34317;SDS011;20582;52.196;20.952;2022-11-02T05:57:37;407.80;;;101.68;;
34317;SDS011;20582;52.196;20.952;2022-11-02T06:00:04;396.73;;;99.07;;
34317;SDS011;20582;52.196;20.952;2022-11-02T06:02:32;442.73;;;96.65;;
34317;SDS011;20582;52.196;20.952;2022-11-02T06:04:58;419.02;;;99.05;;
34317;SDS011;20582;52.196;20.952;2022-11-02T06:07:24;435.90;;;95.43;;
34317;SDS011;20582;52.196;20.952;2022-11-02T06:09:50;457.15;;;95.70;;
34317;SDS011;20582;52.196;20.952;2022-11-02T06:12:16;402.25;;;96.13;;
34317;SDS011;20582;52.196;20.952;2022-11-02T06:14:42;378.05;;;89.38;;
34317;SDS011;20582;52.196;20.952;2022-11-02T06:17:08;335.30;;;87.57;;
34317;SDS011;20582;52.196;20.952;2022-11-02T06:19:34;333.77;;;85.65;;
34317;SDS011;20582;52.196;20.952;2022-11-02T06:22:00;333.10;;;85.82;;
34317;SDS011;20582;52.196;20.952;2022-11-02T06:24:26;343.75;;;86.38;;
34317;SDS011;20582;52.196;20.952;2022-11-02T06:26:52;315.27;;;84.05;;
34317;SDS011;20582;52.196;20.952;2022-11-02T06:29:18;306.25;;;80.63;;
34317;SDS011;20582;52.196;20.952;2022-11-02T06:31:44;316.60;;;83.78;;
34317;SDS011;20582;52.196;20.952;2022-11-02T06:34:10;295.73;;;79.25;;
34317;SDS011;20582;52.196;20.952;2022-11-02T06:36:36;295.42;;;78.72;;
34317;SDS011;20582;52.196;20.952;2022-11-02T06:39:02;272.40;;;74.43;;
34317;SDS011;20582;52.196;20.952;2022-11-02T06:41:28;256.33;;;70.25;;
34317;SDS011;20582;52.196;20.952;2022-11-02T06:43:54;238.20;;;70.05;;
34317;SDS011;20582;52.196;20.952;2022-11-02T06:46:20;220.07;;;66.43;;
34317;SDS011;20582;52.196;20.952;2022-11-02T06:48:46;210.65;;;67.32;;
34317;SDS011;20582;52.196;20.952;2022-11-02T06:51:12;181.00;;;59.63;;
34317;SDS011;20582;52.196;20.952;2022-11-02T06:53:39;170.90;;;57.15;;
34317;SDS011;20582;52.196;20.952;2022-11-02T06:56:05;184.20;;;59.60;;
34317;SDS011;20582;52.196;20.952;2022-11-02T06:58:31;177.48;;;58.72;;
34317;SDS011;20582;52.196;20.952;2022-11-02T07:00:57;160.48;;;55.72;;
34317;SDS011;20582;52.196;20.952;2022-11-02T07:03:24;153.88;;;54.30;;
34317;SDS011;20582;52.196;20.952;2022-11-02T07:05:50;147.23;;;54.05;;
34317;SDS011;20582;52.196;20.952;2022-11-02T07:08:17;136.52;;;51.03;;
34317;SDS011;20582;52.196;20.952;2022-11-02T07:10:43;126.47;;;50.42;;
34317;SDS011;20582;52.196;20.952;2022-11-02T07:13:09;127.80;;;48.53;;
34317;SDS011;20582;52.196;20.952;2022-11-02T07:15:35;115.00;;;47.20;;
34317;SDS011;20582;52.196;20.952;2022-11-02T07:18:01;109.93;;;45.80;;
34317;SDS011;20582;52.196;20.952;2022-11-02T07:20:27;104.35;;;44.50;;
34317;SDS011;20582;52.196;20.952;2022-11-02T07:22:55;109.90;;;45.80;;
34317;SDS011;20582;52.196;20.952;2022-11-02T07:25:21;102.57;;;44.55;;
34317;SDS011;20582;52.196;20.952;2022-11-02T07:27:47;101.05;;;43.88;;
34317;SDS011;20582;52.196;20.952;2022-11-02T07:30:13;98.25;;;42.13;;
34317;SDS011;20582;52.196;20.952;2022-11-02T07:32:40;98.53;;;41.33;;
34317;SDS011;20582;52.196;20.952;2022-11-02T07:35:06;90.18;;;40.08;;
34317;SDS011;20582;52.196;20.952;2022-11-02T07:37:33;83.78;;;39.10;;
34317;SDS011;20582;52.196;20.952;2022-11-02T07:39:59;79.65;;;37.83;;
34317;SDS011;20582;52.196;20.952;2022-11-02T07:42:25;80.03;;;37.70;;
34317;SDS011;20582;52.196;20.952;2022-11-02T07:44:51;82.93;;;38.88;;
34317;SDS011;20582;52.196;20.952;2022-11-02T07:47:17;70.32;;;37.20;;
34317;SDS011;20582;52.196;20.952;2022-11-02T07:49:44;75.40;;;36.00;;
34317;SDS011;20582;52.196;20.952;2022-11-02T07:52:10;73.80;;;36.85;;
34317;SDS011;20582;52.196;20.952;2022-11-02T07:54:36;57.58;;;31.38;;
34317;SDS011;20582;52.196;20.952;2022-11-02T07:57:02;56.55;;;31.50;;
34317;SDS011;20582;52.196;20.952;2022-11-02T07:59:28;59.97;;;30.65;;
34317;SDS011;20582;52.196;20.952;2022-11-02T08:01:54;54.08;;;30.35;;
34317;SDS011;20582;52.196;20.952;2022-11-02T08:04:20;54.22;;;30.00;;
34317;SDS011;20582;52.196;20.952;2022-11-02T08:06:46;55.60;;;30.90;;
34317;SDS011;20582;52.196;20.952;2022-11-02T08:09:12;58.47;;;30.52;;
34317;SDS011;20582;52.196;20.952;2022-11-02T08:11:39;60.85;;;30.67;;
34317;SDS011;20582;52.196;20.952;2022-11-02T08:14:05;51.83;;;30.10;;
34317;SDS011;20582;52.196;20.952;2022-11-02T08:16:31;58.40;;;32.65;;
34317;SDS011;20582;52.196;20.952;2022-11-02T08:18:57;51.90;;;31.67;;
34317;SDS011;20582;52.196;20.952;2022-11-02T08:21:24;57.78;;;30.88;;
34317;SDS011;20582;52.196;20.952;2022-11-02T08:23:50;54.67;;;30.65;;
34317;SDS011;20582;52.196;20.952;2022-11-02T08:26:16;55.78;;;32.42;;
34317;SDS011;20582;52.196;20.952;2022-11-02T08:28:42;57.75;;;32.95;;
34317;SDS011;20582;52.196;20.952;2022-11-02T08:31:17;59.42;;;33.30;;
34317;SDS011;20582;52.196;20.952;2022-11-02T08:33:43;57.13;;;35.20;;
34317;SDS011;20582;52.196;20.952;2022-11-02T08:36:10;59.03;;;36.50;;
34317;SDS011;20582;52.196;20.952;2022-11-02T08:38:36;62.00;;;36.78;;
34317;SDS011;20582;52.196;20.952;2022-11-02T08:41:03;59.50;;;36.05;;
34317;SDS011;20582;52.196;20.952;2022-11-02T08:43:29;59.50;;;35.05;;
34317;SDS011;20582;52.196;20.952;2022-11-02T08:45:57;56.45;;;36.28;;
34317;SDS011;20582;52.196;20.952;2022-11-02T08:48:23;71.55;;;38.35;;
34317;SDS011;20582;52.196;20.952;2022-11-02T08:50:50;62.70;;;38.03;;
34317;SDS011;20582;52.196;20.952;2022-11-02T08:53:16;63.05;;;37.03;;
34317;SDS011;20582;52.196;20.952;2022-11-02T08:55:42;63.95;;;36.53;;
34317;SDS011;20582;52.196;20.952;2022-11-02T08:58:08;60.10;;;37.75;;
34317;SDS011;20582;52.196;20.952;2022-11-02T09:00:34;57.47;;;34.65;;
34317;SDS011;20582;52.196;20.952;2022-11-02T09:05:27;58.80;;;35.67;;
34317;SDS011;20582;52.196;20.952;2022-11-02T09:07:57;61.55;;;37.10;;
34317;SDS011;20582;52.196;20.952;2022-11-02T09:10:24;63.70;;;36.78;;
34317;SDS011;20582;52.196;20.952;2022-11-02T09:12:50;61.22;;;36.97;;
34317;SDS011;20582;52.196;20.952;2022-11-02T09:15:17;58.70;;;35.78;;
34317;SDS011;20582;52.196;20.952;2022-11-02T09:17:45;57.15;;;37.22;;
34317;SDS011;20582;52.196;20.952;2022-11-02T09:20:11;58.58;;;37.17;;
34317;SDS011;20582;52.196;20.952;2022-11-02T09:22:37;61.40;;;38.40;;
34317;SDS011;20582;52.196;20.952;2022-11-02T09:25:03;60.20;;;37.58;;
34317;SDS011;20582;52.196;20.952;2022-11-02T09:27:29;55.85;;;33.70;;
34317;SDS011;20582;52.196;20.952;2022-11-02T09:29:56;53.95;;;32.25;;
34317;SDS011;20582;52.196;20.952;2022-11-02T09:32:21;53.67;;;31.13;;
34317;SDS011;20582;52.196;20.952;2022-11-02T09:34:48;54.45;;;31.13;;
34317;SDS011;20582;52.196;20.952;2022-11-02T09:37:14;45.13;;;28.83;;
34317;SDS011;20582;52.196;20.952;2022-11-02T09:39:40;46.28;;;29.55;;
34317;SDS011;20582;52.196;20.952;2022-11-02T09:42:10;49.83;;;31.30;;
34317;SDS011;20582;52.196;20.952;2022-11-02T09:44:50;53.55;;;33.75;;
34317;SDS011;20582;52.196;20.952;2022-11-02T09:47:19;53.95;;;33.00;;
34317;SDS011;20582;52.196;20.952;2022-11-02T09:49:46;56.03;;;32.58;;
34317;SDS011;20582;52.196;20.952;2022-11-02T09:52:46;50.35;;;31.48;;
34317;SDS011;20582;52.196;20.952;2022-11-02T09:55:09;55.47;;;33.30;;
34317;SDS011;20582;52.196;20.952;2022-11-02T09:57:37;52.55;;;31.83;;
34317;SDS011;20582;52.196;20.952;2022-11-02T10:00:03;52.72;;;30.73;;
34317;SDS011;20582;52.196;20.952;2022-11-02T10:07:28;58.22;;;31.75;;
34317;SDS011;20582;52.196;20.952;2022-11-02T10:15:27;55.55;;;31.35;;
34317;SDS011;20582;52.196;20.952;2022-11-02T10:17:56;52.35;;;30.83;;
34317;SDS011;20582;52.196;20.952;2022-11-02T10:20:33;53.03;;;29.85;;
34317;SDS011;20582;52.196;20.952;2022-11-02T10:23:02;55.70;;;30.48;;
34317;SDS011;20582;52.196;20.952;2022-11-02T10:25:30;57.35;;;30.65;;
34317;SDS011;20582;52.196;20.952;2022-11-02T10:28:00;55.55;;;30.38;;
34317;SDS011;20582;52.196;20.952;2022-11-02T10:30:28;52.88;;;31.27;;
34317;SDS011;20582;52.196;20.952;2022-11-02T10:32:55;59.30;;;30.50;;
34317;SDS011;20582;52.196;20.952;2022-11-02T10:43:11;53.50;;;30.85;;
34317;SDS011;20582;52.196;20.952;2022-11-02T10:51:10;50.83;;;27.92;;
34317;SDS011;20582;52.196;20.952;2022-11-02T10:53:31;49.85;;;27.95;;
34317;SDS011;20582;52.196;20.952;2022-11-02T10:56:00;47.23;;;27.00;;
34317;SDS011;20582;52.196;20.952;2022-11-02T10:58:29;43.50;;;26.05;;
34317;SDS011;20582;52.196;20.952;2022-11-02T11:01:06;41.35;;;26.02;;
34317;SDS011;20582;52.196;20.952;2022-11-02T11:03:32;42.97;;;25.67;;
34317;SDS011;20582;52.196;20.952;2022-11-02T11:05:59;38.28;;;24.08;;
34317;SDS011;20582;52.196;20.952;2022-11-02T11:08:38;42.88;;;26.58;;
34317;SDS011;20582;52.196;20.952;2022-11-02T11:11:09;40.75;;;24.40;;
34317;SDS011;20582;52.196;20.952;2022-11-02T11:13:35;39.63;;;23.85;;
34317;SDS011;20582;52.196;20.952;2022-11-02T11:16:02;37.42;;;25.38;;
34317;SDS011;20582;52.196;20.952;2022-11-02T11:18:28;39.33;;;25.30;;
34317;SDS011;20582;52.196;20.952;2022-11-02T11:20:54;40.15;;;24.70;;
34317;SDS011;20582;52.196;20.952;2022-11-02T11:23:21;39.40;;;24.45;;
34317;SDS011;20582;52.196;20.952;2022-11-02T11:28:35;33.50;;;22.48;;
34317;SDS011;20582;52.196;20.952;2022-11-02T11:31:16;33.45;;;22.08;;
34317;SDS011;20582;52.196;20.952;2022-11-02T11:33:52;33.00;;;20.20;;
34317;SDS011;20582;52.196;20.952;2022-11-02T11:36:29;29.13;;;21.05;;
34317;SDS011;20582;52.196;20.952;2022-11-02T11:39:00;36.08;;;21.15;;
34317;SDS011;20582;52.196;20.952;2022-11-02T11:41:27;34.38;;;20.92;;
34317;SDS011;20582;52.196;20.952;2022-11-02T11:43:53;32.35;;;18.55;;
34317;SDS011;20582;52.196;20.952;2022-11-02T11:46:19;25.75;;;17.55;;
34317;SDS011;20582;52.196;20.952;2022-11-02T11:48:49;26.30;;;17.40;;
34317;SDS011;20582;52.196;20.952;2022-11-02T11:54:02;26.80;;;18.20;;
34317;SDS011;20582;52.196;20.952;2022-11-02T11:56:28;27.23;;;18.52;;
34317;SDS011;20582;52.196;20.952;2022-11-02T11:58:54;32.13;;;20.48;;
34317;SDS011;20582;52.196;20.952;2022-11-02T12:01:20;32.47;;;20.42;;
34317;SDS011;20582;52.196;20.952;2022-11-02T12:08:51;28.77;;;17.73;;
34317;SDS011;20582;52.196;20.952;2022-11-02T12:47:39;24.52;;;16.75;;
34317;SDS011;20582;52.196;20.952;2022-11-02T12:58:06;23.70;;;15.38;;
34317;SDS011;20582;52.196;20.952;2022-11-02T13:00:36;27.83;;;15.10;;
34317;SDS011;20582;52.196;20.952;2022-11-02T13:03:06;24.27;;;14.10;;
34317;SDS011;20582;52.196;20.952;2022-11-02T13:05:41;21.40;;;14.77;;
34317;SDS011;20582;52.196;20.952;2022-11-02T13:10:34;22.67;;;13.77;;
34317;SDS011;20582;52.196;20.952;2022-11-02T13:13:03;20.92;;;13.90;;
34317;SDS011;20582;52.196;20.952;2022-11-02T13:15:32;23.65;;;14.77;;
34317;SDS011;20582;52.196;20.952;2022-11-02T13:18:03;20.92;;;14.68;;
34317;SDS011;20582;52.196;20.952;2022-11-02T13:20:34;23.88;;;15.95;;
34317;SDS011;20582;52.196;20.952;2022-11-02T13:23:05;26.75;;;16.08;;
34317;SDS011;20582;52.196;20.952;2022-11-02T13:25:37;34.95;;;22.23;;
34317;SDS011;20582;52.196;20.952;2022-11-02T13:28:15;46.35;;;27.25;;
34317;SDS011;20582;52.196;20.952;2022-11-02T13:30:41;39.03;;;26.55;;
34317;SDS011;20582;52.196;20.952;2022-11-02T13:33:18;25.63;;;17.00;;
34317;SDS011;20582;52.196;20.952;2022-11-02T13:35:45;26.95;;;16.10;;
34317;SDS011;20582;52.196;20.952;2022-11-02T13:40:46;41.03;;;22.60;;
34317;SDS011;20582;52.196;20.952;2022-11-02T13:50:55;29.80;;;17.40;;
34317;SDS011;20582;52.196;20.952;2022-11-02T13:53:24;27.08;;;17.85;;
34317;SDS011;20582;52.196;20.952;2022-11-02T13:55:53;32.17;;;19.02;;
34317;SDS011;20582;52.196;20.952;2022-11-02T13:58:21;32.13;;;18.58;;
34317;SDS011;20582;52.196;20.952;2022-11-02T14:00:49;34.17;;;19.58;;
34317;SDS011;20582;52.196;20.952;2022-11-02T14:06:02;33.10;;;19.17;;
34317;SDS011;20582;52.196;20.952;2022-11-02T14:08:35;31.75;;;19.13;;
34317;SDS011;20582;52.196;20.952;2022-11-02T14:11:22;33.85;;;20.58;;
34317;SDS011;20582;52.196;20.952;2022-11-02T14:19:13;37.72;;;22.27;;
34317;SDS011;20582;52.196;20.952;2022-11-02T14:32:11;38.60;;;23.63;;
34317;SDS011;20582;52.196;20.952;2022-11-02T14:40:12;42.08;;;24.77;;
34317;SDS011;20582;52.196;20.952;2022-11-02T14:48:10;41.42;;;25.17;;
34317;SDS011;20582;52.196;20.952;2022-11-02T14:50:38;44.55;;;26.50;;
34317;SDS011;20582;52.196;20.952;2022-11-02T14:53:05;45.67;;;26.52;;
34317;SDS011;20582;52.196;20.952;2022-11-02T14:55:36;44.33;;;26.55;;
34317;SDS011;20582;52.196;20.952;2022-11-02T15:00:31;47.25;;;27.52;;
34317;SDS011;20582;52.196;20.952;2022-11-02T15:02:58;42.00;;;27.15;;
34317;SDS011;20582;52.196;20.952;2022-11-02T15:05:28;45.92;;;28.48;;
34317;SDS011;20582;52.196;20.952;2022-11-02T15:07:56;43.72;;;26.48;;
34317;SDS011;20582;52.196;20.952;2022-11-02T15:15:40;47.22;;;29.92;;
34317;SDS011;20582;52.196;20.952;2022-11-02T15:18:39;46.03;;;27.35;;
34317;SDS011;20582;52.196;20.952;2022-11-02T15:26:15;48.55;;;30.33;;
34317;SDS011;20582;52.196;20.952;2022-11-02T15:28:43;52.08;;;32.00;;
34317;SDS011;20582;52.196;20.952;2022-11-02T15:31:14;54.42;;;33.20;;
34317;SDS011;20582;52.196;20.952;2022-11-02T15:36:12;53.92;;;31.75;;
34317;SDS011;20582;52.196;20.952;2022-11-02T15:38:39;52.03;;;32.60;;
34317;SDS011;20582;52.196;20.952;2022-11-02T15:41:50;55.13;;;33.50;;
34317;SDS011;20582;52.196;20.952;2022-11-02T15:46:29;61.60;;;33.15;;
34317;SDS011;20582;52.196;20.952;2022-11-02T15:51:50;54.03;;;31.83;;
34317;SDS011;20582;52.196;20.952;2022-11-02T16:04:38;69.18;;;38.83;;
34317;SDS011;20582;52.196;20.952;2022-11-02T16:07:10;71.78;;;40.78;;
34317;SDS011;20582;52.196;20.952;2022-11-02T16:09:38;75.65;;;38.63;;
34317;SDS011;20582;52.196;20.952;2022-11-02T16:12:18;77.38;;;42.15;;
34317;SDS011;20582;52.196;20.952;2022-11-02T16:14:49;70.63;;;40.25;;
34317;SDS011;20582;52.196;20.952;2022-11-02T16:19:45;75.43;;;41.45;;
34317;SDS011;20582;52.196;20.952;2022-11-02T16:22:11;78.15;;;39.72;;
34317;SDS011;20582;52.196;20.952;2022-11-02T16:24:40;77.47;;;40.00;;
34317;SDS011;20582;52.196;20.952;2022-11-02T16:27:09;74.15;;;40.55;;
34317;SDS011;20582;52.196;20.952;2022-11-02T16:29:36;74.57;;;40.03;;
34317;SDS011;20582;52.196;20.952;2022-11-02T16:32:07;80.07;;;42.58;;
34317;SDS011;20582;52.196;20.952;2022-11-02T16:34:34;69.90;;;40.28;;
34317;SDS011;20582;52.196;20.952;2022-11-02T16:37:00;80.57;;;42.05;;
34317;SDS011;20582;52.196;20.952;2022-11-02T16:39:27;80.47;;;43.47;;
34317;SDS011;20582;52.196;20.952;2022-11-02T16:41:56;177.82;;;132.10;;
34317;SDS011;20582;52.196;20.952;2022-11-02T16:44:24;144.05;;;99.10;;
34317;SDS011;20582;52.196;20.952;2022-11-02T16:49:20;98.88;;;50.20;;
34317;SDS011;20582;52.196;20.952;2022-11-02T16:51:46;106.28;;;59.75;;
34317;SDS011;20582;52.196;20.952;2022-11-02T16:54:55;102.13;;;56.95;;
34317;SDS011;20582;52.196;20.952;2022-11-02T16:57:06;108.60;;;61.28;;
34317;SDS011;20582;52.196;20.952;2022-11-02T16:59:37;126.97;;;76.90;;
34317;SDS011;20582;52.196;20.952;2022-11-02T17:02:10;121.38;;;67.93;;
34317;SDS011;20582;52.196;20.952;2022-11-02T17:04:41;111.43;;;57.20;;
34317;SDS011;20582;52.196;20.952;2022-11-02T17:07:27;108.60;;;52.88;;
34317;SDS011;20582;52.196;20.952;2022-11-02T17:09:54;96.55;;;50.20;;
34317;SDS011;20582;52.196;20.952;2022-11-02T17:12:32;81.85;;;43.78;;
34317;SDS011;20582;52.196;20.952;2022-11-02T17:14:59;83.35;;;42.17;;
34317;SDS011;20582;52.196;20.952;2022-11-02T17:17:30;75.05;;;40.28;;